Time;durP1;ratioP1;P1;durP2;ratioP2;P2;SDS_P1;SDS_P2;PMS_P1;PMS_P2;Temp;Humidity;BMP_temperature;BMP_pressure;BME280_temperature;BME280_humidity;BME280_pressure;Samples;Min_cycle;Max_cycle;Signal;HPM_P1;HPM_P2
2022/01/03 00:01:26;;;;;;;15.75;2.85;;;;;;;;;;5022811;28;89259;-73
2022/01/03 00:03:53;;;;;;;14.00;2.35;;;;;;;;;;5022954;28;88487;-73
2022/01/03 00:06:20;;;;;;;17.67;3.03;;;;;;;;;;5026160;28;88080;-73
2022/01/03 00:08:46;;;;;;;17.30;2.92;;;;;;;;;;5023091;28;89149;-74
2022/01/03 00:11:14;;;;;;;17.42;3.85;;;;;;;;;;5023146;28;88151;-73
2022/01/03 00:13:44;;;;;;;21.15;3.20;;;;;;;;;;5023117;28;89070;-73
2022/01/03 00:16:10;;;;;;;25.52;3.08;;;;;;;;;;5022499;28;88987;-74
2022/01/03 00:18:37;;;;;;;20.13;3.22;;;;;;;;;;5022942;28;87904;-73
2022/01/03 00:21:06;;;;;;;17.13;3.20;;;;;;;;;;5022471;28;89410;-73
2022/01/03 00:23:36;;;;;;;25.42;4.00;;;;;;;;;;5022444;28;89233;-73
2022/01/03 00:26:03;;;;;;;24.00;3.40;;;;;;;;;;5022727;28;88484;-74
2022/01/03 00:28:34;;;;;;;19.55;3.58;;;;;;;;;;5025180;28;89405;-73
2022/01/03 00:31:01;;;;;;;20.15;3.70;;;;;;;;;;5022733;28;88121;-74
2022/01/03 00:33:27;;;;;;;22.33;4.05;;;;;;;;;;5004529;28;91870;-73
2022/01/03 00:35:58;;;;;;;22.10;2.97;;;;;;;;;;5019439;28;94092;-74
2022/01/03 00:38:28;;;;;;;26.10;3.60;;;;;;;;;;5020276;28;91538;-73
2022/01/03 00:40:55;;;;;;;21.52;4.22;;;;;;;;;;5001150;28;95021;-73
2022/01/03 00:43:21;;;;;;;27.95;4.55;;;;;;;;;;5001454;28;94544;-73
2022/01/03 00:45:50;;;;;;;24.35;4.35;;;;;;;;;;5017930;28;94644;-73
2022/01/03 00:48:17;;;;;;;27.48;4.05;;;;;;;;;;5019281;28;95837;-73
2022/01/03 00:50:44;;;;;;;31.38;4.25;;;;;;;;;;5022245;28;93622;-74
2022/01/03 00:53:10;;;;;;;18.60;2.97;;;;;;;;;;5001502;28;96042;-73
2022/01/03 00:55:37;;;;;;;30.27;3.70;;;;;;;;;;5019012;28;93927;-73
2022/01/03 00:58:08;;;;;;;24.50;4.15;;;;;;;;;;5019114;28;92267;-74
2022/01/03 01:00:37;;;;;;;38.05;5.97;;;;;;;;;;5000843;28;95104;-74
2022/01/03 01:03:05;;;;;;;35.10;4.88;;;;;;;;;;5001396;28;95508;-74
2022/01/03 01:05:33;;;;;;;23.25;3.60;;;;;;;;;;5001522;28;92234;-74
2022/01/03 01:07:59;;;;;;;35.15;4.57;;;;;;;;;;5000884;28;96433;-73
2022/01/03 01:10:30;;;;;;;25.70;4.40;;;;;;;;;;5017226;28;96476;-74
2022/01/03 01:12:57;;;;;;;34.90;4.50;;;;;;;;;;5004149;28;92412;-73
2022/01/03 01:15:26;;;;;;;25.70;4.05;;;;;;;;;;5000667;28;95846;-73
2022/01/03 01:17:53;;;;;;;22.17;3.10;;;;;;;;;;5001115;28;92378;-73
2022/01/03 01:20:21;;;;;;;34.97;4.60;;;;;;;;;;5001104;28;94776;-73
2022/01/03 01:22:51;;;;;;;34.38;4.72;;;;;;;;;;5000742;28;93880;-73
2022/01/03 01:27:48;;;;;;;19.92;3.20;;;;;;;;;;5001569;28;95349;-73
2022/01/03 01:30:23;;;;;;;28.20;4.13;;;;;;;;;;5000816;28;95905;-74
2022/01/03 01:32:51;;;;;;;33.35;4.47;;;;;;;;;;5000955;28;92610;-73
2022/01/03 01:35:19;;;;;;;25.30;4.05;;;;;;;;;;5037737;27;94917;-73
2022/01/03 01:37:48;;;;;;;27.10;3.97;;;;;;;;;;5059224;27;92216;-73
2022/01/03 01:40:14;;;;;;;31.55;4.47;;;;;;;;;;5040875;27;95000;-73
2022/01/03 01:42:45;;;;;;;30.70;6.05;;;;;;;;;;5040679;27;95764;-73
2022/01/03 01:45:13;;;;;;;37.88;4.93;;;;;;;;;;5041013;27;92305;-73
2022/01/03 01:47:40;;;;;;;33.00;4.05;;;;;;;;;;5040227;27;95337;-74
2022/01/03 01:50:08;;;;;;;35.80;5.00;;;;;;;;;;5040670;27;95522;-72
2022/01/03 01:52:36;;;;;;;31.35;4.32;;;;;;;;;;5059503;27;91643;-73
2022/01/03 01:55:07;;;;;;;23.17;3.83;;;;;;;;;;5043619;27;94613;-73
2022/01/03 01:57:57;;;;;;;41.58;4.50;;;;;;;;;;5040532;27;92340;-74
2022/01/03 02:00:33;;;;;;;32.17;4.45;;;;;;;;;;5039097;27;96619;-73
2022/01/03 02:03:53;;;;;;;30.80;4.35;;;;;;;;;;5040426;27;95133;-74
2022/01/03 02:06:22;;;;;;;30.70;4.38;;;;;;;;;;4939885;28;92552;-74
2022/01/03 02:09:05;;;;;;;40.17;4.85;;;;;;;;;;5040718;27;95380;-74
2022/01/03 02:11:38;;;;;;;31.67;4.43;;;;;;;;;;5040071;27;95620;-73
2022/01/03 02:14:04;;;;;;;40.50;5.18;;;;;;;;;;5040272;27;92602;-73
2022/01/03 02:16:32;;;;;;;34.13;4.85;;;;;;;;;;5039634;27;94446;-74
2022/01/03 02:18:58;;;;;;;36.72;5.65;;;;;;;;;;5061364;27;92677;-74
2022/01/03 02:21:25;;;;;;;33.75;5.15;;;;;;;;;;5040396;27;94321;-73
2022/01/03 02:23:53;;;;;;;36.78;4.72;;;;;;;;;;5039832;27;95708;-74
2022/01/03 02:26:21;;;;;;;40.80;4.93;;;;;;;;;;5038654;27;94775;-74
2022/01/03 02:28:48;;;;;;;30.08;4.72;;;;;;;;;;5058407;27;95733;-73
2022/01/03 02:31:17;;;;;;;36.67;3.92;;;;;;;;;;5039900;27;96615;-73
2022/01/03 02:33:45;;;;;;;37.55;4.82;;;;;;;;;;5040287;27;92285;-73
2022/01/03 02:36:13;;;;;;;24.23;3.90;;;;;;;;;;5039963;27;95485;-73
2022/01/03 02:38:39;;;;;;;36.33;5.43;;;;;;;;;;5057973;27;93571;-73
2022/01/03 02:41:05;;;;;;;28.20;3.53;;;;;;;;;;5043204;27;92262;-73
2022/01/03 02:43:32;;;;;;;45.88;5.90;;;;;;;;;;5058344;27;92941;-72
2022/01/03 02:45:59;;;;;;;41.35;4.97;;;;;;;;;;5039681;27;92437;-74
2022/01/03 02:48:26;;;;;;;30.48;4.43;;;;;;;;;;5039824;27;96347;-73
2022/01/03 02:50:56;;;;;;;28.65;4.85;;;;;;;;;;5037983;27;97930;-73
2022/01/03 02:53:22;;;;;;;35.38;4.80;;;;;;;;;;5039816;27;92401;-73
2022/01/03 02:55:49;;;;;;;38.30;5.38;;;;;;;;;;5058030;27;93239;-73
2022/01/03 02:58:15;;;;;;;40.67;5.32;;;;;;;;;;5057724;27;92940;-73
2022/01/03 03:00:45;;;;;;;33.13;4.82;;;;;;;;;;5039354;27;92439;-73
2022/01/03 03:03:17;;;;;;;42.90;4.97;;;;;;;;;;5042745;27;95841;-73
2022/01/03 03:05:44;;;;;;;35.05;4.72;;;;;;;;;;5039509;27;92348;-73
2022/01/03 03:08:11;;;;;;;32.53;4.18;;;;;;;;;;5058303;27;93552;-73
2022/01/03 03:10:37;;;;;;;31.45;4.82;;;;;;;;;;5039176;27;96523;-73
2022/01/03 03:13:04;;;;;;;30.30;4.05;;;;;;;;;;5057279;27;92302;-73
2022/01/03 03:15:31;;;;;;;36.88;4.53;;;;;;;;;;5037705;27;95787;-73
2022/01/03 03:17:57;;;;;;;38.30;5.50;;;;;;;;;;5057619;27;93776;-73
2022/01/03 03:20:28;;;;;;;34.90;5.78;;;;;;;;;;5039253;27;92341;-73
2022/01/03 03:22:55;;;;;;;27.77;4.63;;;;;;;;;;5039463;27;95940;-73
2022/01/03 03:25:28;;;;;;;35.80;4.97;;;;;;;;;;5041876;27;95507;-73
2022/01/03 03:27:57;;;;;;;29.88;4.40;;;;;;;;;;5039194;27;95162;-73
2022/01/03 03:30:28;;;;;;;39.47;5.07;;;;;;;;;;5038943;27;94726;-73
2022/01/03 03:32:58;;;;;;;34.30;4.70;;;;;;;;;;5039786;27;91600;-73
2022/01/03 03:35:25;;;;;;;45.70;5.22;;;;;;;;;;5039121;27;93871;-73
2022/01/03 03:37:52;;;;;;;33.05;4.10;;;;;;;;;;5039065;27;96155;-72
2022/01/03 03:40:18;;;;;;;35.63;5.70;;;;;;;;;;5055226;27;94736;-73
2022/01/03 03:42:46;;;;;;;29.60;4.70;;;;;;;;;;5039071;27;98089;-72
2022/01/03 03:45:13;;;;;;;25.63;4.97;;;;;;;;;;5057091;27;93380;-73
2022/01/03 03:47:40;;;;;;;42.28;5.32;;;;;;;;;;5042012;27;92256;-73
2022/01/03 03:50:08;;;;;;;38.67;7.13;;;;;;;;;;5038562;27;95698;-72
2022/01/03 03:52:34;;;;;;;38.35;5.90;;;;;;;;;;5039056;27;92276;-73
2022/01/03 03:55:01;;;;;;;33.58;5.43;;;;;;;;;;5056732;27;93601;-73
2022/01/03 03:57:27;;;;;;;51.25;5.68;;;;;;;;;;5057389;27;92752;-73
2022/01/03 03:59:53;;;;;;;39.13;5.43;;;;;;;;;;5057241;27;92095;-73
2022/01/03 04:02:20;;;;;;;45.85;5.30;;;;;;;;;;5038862;27;95470;-73
2022/01/03 04:04:47;;;;;;;42.88;5.57;;;;;;;;;;5055179;27;96287;-73
2022/01/03 04:07:14;;;;;;;41.75;5.65;;;;;;;;;;5041869;27;93396;-73
2022/01/03 04:09:40;;;;;;;37.63;6.43;;;;;;;;;;5038251;27;94287;-72
2022/01/03 04:12:07;;;;;;;41.38;6.00;;;;;;;;;;5039172;27;92385;-73
2022/01/03 04:14:33;;;;;;;43.20;5.45;;;;;;;;;;5038817;27;95901;-72
2022/01/03 04:17:00;;;;;;;37.72;5.57;;;;;;;;;;5056722;27;93453;-72
2022/01/03 04:19:27;;;;;;;45.67;5.68;;;;;;;;;;5038811;27;92280;-73
2022/01/03 04:21:53;;;;;;;45.58;7.57;;;;;;;;;;5057301;27;93799;-73
2022/01/03 04:24:20;;;;;;;40.25;6.15;;;;;;;;;;5038331;27;96127;-73
2022/01/03 04:26:49;;;;;;;36.00;5.05;;;;;;;;;;5056789;27;92379;-72
2022/01/03 04:29:16;;;;;;;45.35;6.38;;;;;;;;;;5058049;27;94679;-73
2022/01/03 04:31:42;;;;;;;40.65;6.35;;;;;;;;;;5038540;27;92348;-73
2022/01/03 04:34:09;;;;;;;39.80;5.05;;;;;;;;;;5038616;27;95832;-73
2022/01/03 04:36:35;;;;;;;34.58;5.28;;;;;;;;;;5038966;27;96076;-73
2022/01/03 04:39:03;;;;;;;33.10;5.63;;;;;;;;;;5060459;27;92323;-73
2022/01/03 04:41:30;;;;;;;28.42;4.78;;;;;;;;;;5042054;27;95370;-73
2022/01/03 04:43:56;;;;;;;34.17;5.18;;;;;;;;;;5041670;27;96456;-72
2022/01/03 04:46:23;;;;;;;42.75;5.93;;;;;;;;;;5060606;27;91466;-73
2022/01/03 04:48:49;;;;;;;45.55;5.75;;;;;;;;;;5060057;27;92744;-73
2022/01/03 04:51:15;;;;;;;40.92;5.28;;;;;;;;;;5062381;27;93854;-73
2022/01/03 04:53:43;;;;;;;35.08;6.30;;;;;;;;;;5040145;27;95477;-73
2022/01/03 04:56:10;;;;;;;38.88;5.65;;;;;;;;;;5059625;27;93468;-73
2022/01/03 04:58:37;;;;;;;42.13;5.20;;;;;;;;;;5059845;27;92315;-73
2022/01/03 05:01:05;;;;;;;30.88;3.90;;;;;;;;;;5041652;27;94523;-72
2022/01/03 05:03:32;;;;;;;40.90;6.63;;;;;;;;;;5041449;27;95109;-73
2022/01/03 05:06:01;;;;;;;49.97;6.68;;;;;;;;;;5041655;27;92255;-73
2022/01/03 05:08:29;;;;;;;36.15;5.68;;;;;;;;;;5041723;27;95044;-73
2022/01/03 05:10:56;;;;;;;35.70;7.03;;;;;;;;;;5041575;27;95575;-73
2022/01/03 05:13:23;;;;;;;27.42;5.22;;;;;;;;;;5062630;27;92319;-72
2022/01/03 05:15:49;;;;;;;36.00;6.10;;;;;;;;;;5037688;28;96207;-73
2022/01/03 05:18:16;;;;;;;35.80;5.32;;;;;;;;;;5036229;28;94732;-73
2022/01/03 05:20:42;;;;;;;41.78;5.30;;;;;;;;;;5038741;28;95817;-72
2022/01/03 05:23:09;;;;;;;40.85;5.53;;;;;;;;;;5037735;28;95574;-73
2022/01/03 05:25:35;;;;;;;34.75;5.50;;;;;;;;;;5037768;28;92291;-73
2022/01/03 05:28:02;;;;;;;38.15;5.15;;;;;;;;;;5037896;28;95227;-72
2022/01/03 05:30:28;;;;;;;35.60;5.05;;;;;;;;;;5038834;28;93537;-72
2022/01/03 05:32:56;;;;;;;44.30;6.20;;;;;;;;;;5037474;28;92758;-73
2022/01/03 05:35:23;;;;;;;41.38;5.70;;;;;;;;;;5040941;28;95710;-72
2022/01/03 05:37:49;;;;;;;35.25;4.78;;;;;;;;;;5038807;28;92276;-74
2022/01/03 05:40:16;;;;;;;45.75;5.53;;;;;;;;;;5037531;28;94623;-74
2022/01/03 05:42:44;;;;;;;40.95;5.68;;;;;;;;;;5037026;28;96200;-73
2022/01/03 05:45:12;;;;;;;36.03;5.88;;;;;;;;;;5037842;28;93057;-74
2022/01/03 05:47:41;;;;;;;35.20;4.60;;;;;;;;;;5036723;27;95055;-73
2022/01/03 05:50:07;;;;;;;34.70;5.05;;;;;;;;;;5038607;28;93497;-73
2022/01/03 05:52:34;;;;;;;41.10;5.65;;;;;;;;;;5037579;28;92249;-73
2022/01/03 05:55:00;;;;;;;38.58;5.80;;;;;;;;;;5041514;28;93638;-73
2022/01/03 05:57:28;;;;;;;27.95;4.55;;;;;;;;;;5037488;28;92401;-73
2022/01/03 05:59:55;;;;;;;34.72;5.25;;;;;;;;;;5037520;28;96236;-73
2022/01/03 06:02:22;;;;;;;44.17;5.78;;;;;;;;;;5037006;28;93998;-73
2022/01/03 06:07:18;;;;;;;36.70;5.43;;;;;;;;;;5035889;28;95193;-72
2022/01/03 06:09:47;;;;;;;27.48;4.45;;;;;;;;;;5036956;28;95337;-71
2022/01/03 06:12:13;;;;;;;33.85;6.05;;;;;;;;;;5036940;28;92353;-73
2022/01/03 06:14:47;;;;;;;39.45;4.95;;;;;;;;;;5036761;28;95981;-73
2022/01/03 06:17:15;;;;;;;37.38;6.82;;;;;;;;;;5039764;28;95591;-73
2022/01/03 06:19:44;;;;;;;33.70;4.97;;;;;;;;;;5020865;28;95852;-76
2022/01/03 06:22:11;;;;;;;32.53;4.15;;;;;;;;;;5036700;28;95101;-74
2022/01/03 06:24:40;;;;;;;24.58;3.95;;;;;;;;;;5037437;28;91653;-73
2022/01/03 06:27:07;;;;;;;40.47;5.13;;;;;;;;;;5036433;28;94856;-73
2022/01/03 06:29:34;;;;;;;35.15;5.57;;;;;;;;;;5036937;28;95597;-74
2022/01/03 06:32:00;;;;;;;35.45;4.57;;;;;;;;;;5036324;28;94693;-73
2022/01/03 06:34:27;;;;;;;34.88;4.88;;;;;;;;;;5036696;28;98277;-73
2022/01/03 06:36:54;;;;;;;33.55;5.15;;;;;;;;;;5036213;28;96044;-73
2022/01/03 06:39:21;;;;;;;31.23;4.05;;;;;;;;;;5039958;28;92390;-73
2022/01/03 06:41:47;;;;;;;39.00;4.95;;;;;;;;;;5035902;28;96399;-73
2022/01/03 06:44:15;;;;;;;30.42;4.40;;;;;;;;;;5036498;28;92461;-73
2022/01/03 06:46:42;;;;;;;38.70;4.88;;;;;;;;;;5036498;28;96453;-73
2022/01/03 06:49:08;;;;;;;29.95;5.25;;;;;;;;;;5036898;28;95279;-73
2022/01/03 06:51:36;;;;;;;43.20;5.30;;;;;;;;;;5036526;28;92422;-73
2022/01/03 06:54:10;;;;;;;30.08;4.85;;;;;;;;;;5036557;28;95879;-72
2022/01/03 06:56:41;;;;;;;32.42;5.38;;;;;;;;;;5034557;28;98165;-73
2022/01/03 06:59:08;;;;;;;35.60;5.47;;;;;;;;;;5035495;27;93099;-73
2022/01/03 07:01:36;;;;;;;36.10;5.53;;;;;;;;;;5039297;28;95261;-73
2022/01/03 07:04:03;;;;;;;30.13;5.45;;;;;;;;;;5036199;28;93241;-73
2022/01/03 07:06:30;;;;;;;33.03;4.90;;;;;;;;;;5037513;28;93929;-73
2022/01/03 07:08:56;;;;;;;32.00;4.03;;;;;;;;;;5036851;28;93465;-73
2022/01/03 07:11:23;;;;;;;32.35;4.63;;;;;;;;;;5037396;28;92232;-77
2022/01/03 07:13:53;;;;;;;31.27;5.20;;;;;;;;;;5037876;28;93465;-79
2022/01/03 07:19:07;;;;;;;31.20;4.85;;;;;;;;;;5057541;27;92529;-73
2022/01/03 07:21:35;;;;;;;28.38;4.85;;;;;;;;;;5055589;27;94744;-73
2022/01/03 07:24:03;;;;;;;32.90;5.53;;;;;;;;;;5060545;27;93667;-73
2022/01/03 07:26:29;;;;;;;30.55;4.03;;;;;;;;;;5057379;27;93790;-75
2022/01/03 07:28:55;;;;;;;37.28;4.57;;;;;;;;;;5039387;27;94731;-73
2022/01/03 07:31:22;;;;;;;36.15;5.53;;;;;;;;;;5057594;27;92260;-73
2022/01/03 07:33:49;;;;;;;31.52;4.93;;;;;;;;;;5057886;27;92243;-74
2022/01/03 07:36:15;;;;;;;31.98;4.30;;;;;;;;;;5056925;27;93627;-74
2022/01/03 07:38:46;;;;;;;34.75;5.32;;;;;;;;;;5057744;27;92451;-72
2022/01/03 07:41:15;;;;;;;31.75;5.20;;;;;;;;;;5057575;27;92143;-74
2022/01/03 07:43:43;;;;;;;25.80;4.40;;;;;;;;;;5056753;27;93440;-73
2022/01/03 07:46:09;;;;;;;28.38;4.47;;;;;;;;;;5058967;27;94540;-73
2022/01/03 07:48:40;;;;;;;20.75;4.18;;;;;;;;;;5056541;27;93771;-73
2022/01/03 07:51:07;;;;;;;35.67;4.70;;;;;;;;;;5057354;27;92471;-73
2022/01/03 07:53:33;;;;;;;40.20;4.63;;;;;;;;;;5057154;27;92279;-73
2022/01/03 07:55:59;;;;;;;27.27;5.28;;;;;;;;;;5056800;27;93726;-73
2022/01/03 07:58:25;;;;;;;42.03;5.65;;;;;;;;;;5057026;27;92300;-73
2022/01/03 08:00:52;;;;;;;29.00;5.13;;;;;;;;;;5056688;27;93681;-73
2022/01/03 08:03:19;;;;;;;33.05;4.80;;;;;;;;;;5056999;27;93024;-73
2022/01/03 08:06:04;;;;;;;34.42;5.25;;;;;;;;;;5060094;27;92303;-72
2022/01/03 08:08:31;;;;;;;34.28;5.20;;;;;;;;;;5056720;27;93929;-75
2022/01/03 08:10:57;;;;;;;32.63;5.03;;;;;;;;;;5057053;27;94684;-75
2022/01/03 08:13:23;;;;;;;34.00;5.10;;;;;;;;;;5060393;27;95671;-74
2022/01/03 08:15:50;;;;;;;34.40;4.97;;;;;;;;;;5059614;27;93749;-73
2022/01/03 08:18:16;;;;;;;29.08;4.32;;;;;;;;;;5060502;27;92226;-75
2022/01/03 08:20:43;;;;;;;35.97;5.10;;;;;;;;;;5060430;27;93530;-74
2022/01/03 08:23:09;;;;;;;30.63;5.22;;;;;;;;;;5060294;27;93820;-74
2022/01/03 08:25:38;;;;;;;28.65;4.70;;;;;;;;;;5060172;27;92237;-73
2022/01/03 08:28:05;;;;;;;30.02;5.03;;;;;;;;;;5063436;27;93421;-73
2022/01/03 08:30:32;;;;;;;27.88;4.15;;;;;;;;;;5060087;27;92250;-73
2022/01/03 08:32:59;;;;;;;35.72;5.13;;;;;;;;;;5043633;27;93506;-73
2022/01/03 08:35:25;;;;;;;27.10;4.82;;;;;;;;;;5048715;27;96333;-74
2022/01/03 08:37:52;;;;;;;32.50;5.80;;;;;;;;;;5041723;27;92357;-74
2022/01/03 08:40:19;;;;;;;32.28;5.00;;;;;;;;;;5060073;27;93428;-74
2022/01/03 08:42:46;;;;;;;34.33;5.45;;;;;;;;;;5059624;27;93084;-74
2022/01/03 08:45:12;;;;;;;25.77;5.65;;;;;;;;;;5060121;27;92147;-73
2022/01/03 08:47:39;;;;;;;27.25;4.97;;;;;;;;;;5059951;27;93142;-73
2022/01/03 08:50:06;;;;;;;28.08;4.78;;;;;;;;;;5062744;27;93431;-73
2022/01/03 08:52:32;;;;;;;34.17;5.43;;;;;;;;;;5060414;27;93425;-74
2022/01/03 08:54:59;;;;;;;24.55;4.05;;;;;;;;;;5060063;27;92732;-73
2022/01/03 08:57:26;;;;;;;27.30;4.15;;;;;;;;;;5059347;27;92291;-74
2022/01/03 08:59:52;;;;;;;35.88;4.93;;;;;;;;;;5058504;27;94757;-73
2022/01/03 09:02:18;;;;;;;34.40;5.28;;;;;;;;;;5059555;27;93533;-74
2022/01/03 09:04:45;;;;;;;28.15;4.72;;;;;;;;;;5059931;27;92246;-75
2022/01/03 09:07:12;;;;;;;26.02;3.90;;;;;;;;;;5059773;27;93451;-75
2022/01/03 09:09:38;;;;;;;30.42;4.13;;;;;;;;;;5059162;27;94040;-73
2022/01/03 09:12:06;;;;;;;27.35;4.78;;;;;;;;;;5062100;27;92337;-75
2022/01/03 09:14:34;;;;;;;26.52;4.70;;;;;;;;;;5041627;27;93432;-73
2022/01/03 09:17:00;;;;;;;32.58;5.63;;;;;;;;;;5059409;27;91668;-74
2022/01/03 09:19:27;;;;;;;40.58;4.80;;;;;;;;;;5059475;27;92842;-74
2022/01/03 09:22:01;;;;;;;29.08;4.65;;;;;;;;;;5058679;27;93344;-74
2022/01/03 09:24:43;;;;;;;31.83;4.00;;;;;;;;;;5057361;27;94763;-73
2022/01/03 09:29:57;;;;;;;23.40;4.32;;;;;;;;;;5059118;27;93810;-74
2022/01/03 09:32:23;;;;;;;28.27;4.93;;;;;;;;;;5059283;27;92306;-75
2022/01/03 09:34:50;;;;;;;28.05;4.63;;;;;;;;;;5043633;27;94502;-80
2022/01/03 09:37:20;;;;;;;33.85;4.72;;;;;;;;;;5041097;27;92365;-78
2022/01/03 09:39:47;;;;;;;28.40;3.90;;;;;;;;;;5059300;27;92860;-73
2022/01/03 09:42:14;;;;;;;40.63;5.05;;;;;;;;;;5059637;27;92631;-74
2022/01/03 09:44:41;;;;;;;29.52;4.68;;;;;;;;;;5059093;27;92275;-72
2022/01/03 09:47:10;;;;;;;37.00;5.20;;;;;;;;;;5058903;27;92836;-74
2022/01/03 09:49:38;;;;;;;27.05;4.63;;;;;;;;;;5056834;27;96392;-73
2022/01/03 09:52:06;;;;;;;25.60;5.20;;;;;;;;;;5058909;27;92234;-74
2022/01/03 09:54:32;;;;;;;35.05;5.43;;;;;;;;;;5058955;27;93582;-74
2022/01/03 09:57:00;;;;;;;27.48;4.75;;;;;;;;;;5061780;27;93998;-73
2022/01/03 09:59:27;;;;;;;35.80;4.80;;;;;;;;;;5058985;27;93940;-74
2022/01/03 10:01:55;;;;;;;31.77;4.43;;;;;;;;;;5058525;27;93334;-74
2022/01/03 10:04:22;;;;;;;20.90;3.45;;;;;;;;;;5058549;27;92401;-72
2022/01/03 10:06:49;;;;;;;32.58;5.32;;;;;;;;;;5058970;27;92902;-75
2022/01/03 10:09:17;;;;;;;36.67;5.35;;;;;;;;;;5058437;27;92680;-72
2022/01/03 10:11:43;;;;;;;28.73;4.57;;;;;;;;;;5058550;27;92274;-71
2022/01/03 10:14:11;;;;;;;31.80;4.95;;;;;;;;;;5056816;27;94572;-70
2022/01/03 10:16:39;;;;;;;29.30;5.45;;;;;;;;;;5060906;27;93623;-71
2022/01/03 10:19:19;;;;;;;33.78;4.28;;;;;;;;;;5058845;27;93179;-72
2022/01/03 10:21:47;;;;;;;17.05;3.25;;;;;;;;;;5058489;27;93630;-70
2022/01/03 10:24:16;;;;;;;28.63;4.75;;;;;;;;;;5040310;27;92334;-72
2022/01/03 10:26:50;;;;;;;36.42;5.45;;;;;;;;;;5058188;27;93399;-70
2022/01/03 10:29:19;;;;;;;33.85;5.03;;;;;;;;;;5057903;27;93608;-71
2022/01/03 10:31:47;;;;;;;40.65;4.20;;;;;;;;;;5058648;27;91595;-70
2022/01/03 10:34:15;;;;;;;37.22;4.75;;;;;;;;;;5057195;27;92794;-70
2022/01/03 10:36:45;;;;;;;35.13;4.80;;;;;;;;;;5057799;27;93877;-74
2022/01/03 10:39:12;;;;;;;25.45;4.20;;;;;;;;;;5059676;27;94680;-72
2022/01/03 10:41:38;;;;;;;43.78;4.45;;;;;;;;;;5057523;27;93533;-71
2022/01/03 10:44:05;;;;;;;28.35;4.65;;;;;;;;;;5058082;27;92316;-73
2022/01/03 10:46:32;;;;;;;32.55;5.43;;;;;;;;;;5058131;27;93423;-70
2022/01/03 10:49:08;;;;;;;21.73;4.90;;;;;;;;;;5057899;27;93396;-71
2022/01/03 10:51:35;;;;;;;31.95;5.32;;;;;;;;;;5057848;27;92296;-71
2022/01/03 10:54:02;;;;;;;34.40;5.18;;;;;;;;;;5057790;27;93531;-71
2022/01/03 10:56:31;;;;;;;35.88;5.25;;;;;;;;;;5058054;27;92537;-71
2022/01/03 10:59:15;;;;;;;30.27;5.05;;;;;;;;;;5057883;27;92243;-71
2022/01/03 11:01:43;;;;;;;25.02;4.90;;;;;;;;;;5060873;27;93607;-70
2022/01/03 11:04:14;;;;;;;40.92;6.13;;;;;;;;;;5031446;27;94764;-69
2022/01/03 11:11:55;;;;;;;37.65;5.43;;;;;;;;;;5057644;27;92319;-70
2022/01/03 11:14:33;;;;;;;29.60;5.28;;;;;;;;;;5057573;27;93503;-70
2022/01/03 11:17:02;;;;;;;30.67;4.60;;;;;;;;;;5057239;27;93537;-70
2022/01/03 11:19:35;;;;;;;24.50;4.50;;;;;;;;;;5057573;27;92187;-69
2022/01/03 11:22:02;;;;;;;20.58;4.20;;;;;;;;;;5058084;27;93372;-72
2022/01/03 11:24:29;;;;;;;23.80;4.45;;;;;;;;;;5060546;27;93706;-71
2022/01/03 11:26:56;;;;;;;28.27;4.60;;;;;;;;;;5057502;27;93427;-70
2022/01/03 11:29:22;;;;;;;29.40;4.75;;;;;;;;;;5055684;27;96252;-71
2022/01/03 11:31:53;;;;;;;32.08;5.00;;;;;;;;;;5057114;27;92258;-72
2022/01/03 11:34:24;;;;;;;33.50;5.10;;;;;;;;;;5057342;27;92848;-71
2022/01/03 11:36:56;;;;;;;36.90;5.70;;;;;;;;;;5057233;27;93517;-70
2022/01/03 11:39:24;;;;;;;29.65;5.13;;;;;;;;;;5057358;27;92269;-72
2022/01/03 11:41:51;;;;;;;35.00;4.88;;;;;;;;;;5057173;27;94006;-72
2022/01/03 11:44:17;;;;;;;33.15;5.13;;;;;;;;;;5056560;27;93605;-72
2022/01/03 11:46:44;;;;;;;27.23;5.43;;;;;;;;;;5063897;27;91564;-73
2022/01/03 11:49:11;;;;;;;24.55;4.63;;;;;;;;;;5060588;27;93474;-72
2022/01/03 11:51:38;;;;;;;28.35;4.60;;;;;;;;;;5060724;27;93133;-71
2022/01/03 11:54:06;;;;;;;28.80;4.68;;;;;;;;;;5040889;27;94736;-72
2022/01/03 11:56:38;;;;;;;30.60;5.90;;;;;;;;;;5060613;27;93185;-70
2022/01/03 12:04:27;;;;;;;24.98;4.63;;;;;;;;;;5060563;27;93613;-71
2022/01/03 12:07:10;;;;;;;23.48;4.53;;;;;;;;;;5060713;27;92403;-72
2022/01/03 12:09:37;;;;;;;27.90;5.13;;;;;;;;;;5063415;27;93040;-71
2022/01/03 12:12:05;;;;;;;24.85;4.40;;;;;;;;;;5060889;27;91578;-72
2022/01/03 12:14:43;;;;;;;30.67;6.25;;;;;;;;;;5040335;27;92642;-71
2022/01/03 12:17:13;;;;;;;32.95;4.97;;;;;;;;;;5019574;28;93145;-72
2022/01/03 12:20:01;;;;;;;29.25;5.72;;;;;;;;;;5017871;28;94755;-72
2022/01/03 12:22:27;;;;;;;28.67;4.18;;;;;;;;;;5019769;28;95746;-71
2022/01/03 12:25:00;;;;;;;22.45;3.90;;;;;;;;;;5019592;28;93762;-70
2022/01/03 12:27:28;;;;;;;18.98;4.20;;;;;;;;;;5019749;28;92353;-70
2022/01/03 12:30:01;;;;;;;16.20;3.85;;;;;;;;;;5022782;28;93502;-70
2022/01/03 12:32:30;;;;;;;24.52;4.57;;;;;;;;;;5019357;28;92438;-70
2022/01/03 12:35:06;;;;;;;29.17;4.70;;;;;;;;;;5019541;28;93650;-70
2022/01/03 12:37:42;;;;;;;28.63;4.85;;;;;;;;;;5019952;28;93069;-70
2022/01/03 12:40:13;;;;;;;22.35;4.78;;;;;;;;;;5019544;28;92139;-70
2022/01/03 12:42:48;;;;;;;22.63;3.85;;;;;;;;;;5019210;28;93055;-70
2022/01/03 12:45:16;;;;;;;28.58;4.55;;;;;;;;;;5017424;28;95640;-69
2022/01/03 12:47:43;;;;;;;27.40;4.78;;;;;;;;;;5019519;28;92271;-70
2022/01/03 12:50:27;;;;;;;19.92;4.22;;;;;;;;;;5019535;28;93475;-70
2022/01/03 12:52:54;;;;;;;22.27;4.40;;;;;;;;;;5022410;28;92656;-70
2022/01/03 12:55:41;;;;;;;29.00;4.97;;;;;;;;;;5018759;28;93620;-70
2022/01/03 12:58:16;;;;;;;20.80;4.10;;;;;;;;;;5018047;28;93499;-71
2022/01/03 13:00:43;;;;;;;18.48;3.72;;;;;;;;;;5019216;28;92412;-70
2022/01/03 13:03:19;;;;;;;24.63;4.20;;;;;;;;;;5019763;28;93179;-70
2022/01/03 13:06:04;;;;;;;22.50;4.22;;;;;;;;;;5018732;28;93655;-70
2022/01/03 13:08:31;;;;;;;20.17;4.25;;;;;;;;;;5019315;28;92318;-70
2022/01/03 13:11:00;;;;;;;22.60;5.07;;;;;;;;;;5017654;28;94887;-70
2022/01/03 13:13:29;;;;;;;24.75;4.28;;;;;;;;;;5018459;28;93699;-71
2022/01/03 13:15:56;;;;;;;20.85;3.83;;;;;;;;;;5021717;28;92556;-71
2022/01/03 13:18:22;;;;;;;19.65;3.92;;;;;;;;;;5018591;28;93220;-70
2022/01/03 13:20:55;;;;;;;19.63;3.90;;;;;;;;;;5019024;28;92184;-69
2022/01/03 13:23:21;;;;;;;23.25;4.80;;;;;;;;;;5018815;28;93561;-70
2022/01/03 13:25:48;;;;;;;18.55;3.85;;;;;;;;;;5018777;28;93564;-71
2022/01/03 13:28:14;;;;;;;13.60;3.45;;;;;;;;;;5019464;28;91530;-70
2022/01/03 13:30:58;;;;;;;24.23;4.50;;;;;;;;;;5018338;28;92789;-71
2022/01/03 13:33:24;;;;;;;17.73;4.18;;;;;;;;;;5018400;28;93448;-70
2022/01/03 13:35:58;;;;;;;21.63;3.83;;;;;;;;;;5015631;28;94744;-70
2022/01/03 13:38:25;;;;;;;13.77;3.72;;;;;;;;;;5021479;28;95429;-69
2022/01/03 13:40:51;;;;;;;15.50;3.90;;;;;;;;;;5018522;28;92459;-70
2022/01/03 13:43:18;;;;;;;20.98;4.40;;;;;;;;;;5018424;28;93372;-70
2022/01/03 13:51:09;;;;;;;16.70;3.67;;;;;;;;;;5018501;28;93550;-70
2022/01/03 13:53:47;;;;;;;17.80;3.90;;;;;;;;;;5018796;28;92887;-70
2022/01/03 13:56:13;;;;;;;20.13;3.50;;;;;;;;;;5017877;28;92640;-71
2022/01/03 13:58:41;;;;;;;23.10;3.55;;;;;;;;;;5018432;28;92406;-70
2022/01/03 14:01:08;;;;;;;20.13;3.30;;;;;;;;;;5019580;28;96134;-70
2022/01/03 14:03:36;;;;;;;19.50;3.50;;;;;;;;;;5018338;28;95799;-70
2022/01/03 14:06:13;;;;;;;17.42;3.35;;;;;;;;;;5018270;28;93819;-71
2022/01/03 14:08:39;;;;;;;18.63;3.28;;;;;;;;;;5017679;28;92289;-71
2022/01/03 14:11:11;;;;;;;18.83;3.28;;;;;;;;;;5018284;28;93411;-71
2022/01/03 14:13:37;;;;;;;21.02;3.13;;;;;;;;;;5017763;28;93395;-70
2022/01/03 14:16:13;;;;;;;22.13;3.30;;;;;;;;;;5017908;28;92152;-71
2022/01/03 14:18:41;;;;;;;14.18;3.58;;;;;;;;;;5000632;28;93642;-72
2022/01/03 14:21:11;;;;;;;17.35;3.17;;;;;;;;;;5017291;28;93588;-72
2022/01/03 14:23:41;;;;;;;18.85;3.60;;;;;;;;;;5020840;28;92278;-71
2022/01/03 14:26:11;;;;;;;20.60;3.20;;;;;;;;;;5016066;28;95885;-72
2022/01/03 14:29:03;;;;;;;16.52;2.72;;;;;;;;;;5017722;28;92430;-71
2022/01/03 14:31:50;;;;;;;15.68;2.72;;;;;;;;;;5017428;28;93288;-72
2022/01/03 14:34:17;;;;;;;9.68;3.13;;;;;;;;;;5017848;28;93752;-70
2022/01/03 14:36:43;;;;;;;14.65;2.50;;;;;;;;;;5017771;28;93403;-71
2022/01/03 14:39:10;;;;;;;12.88;2.53;;;;;;;;;;5027027;27;93403;-70
2022/01/03 14:41:37;;;;;;;17.92;3.10;;;;;;;;;;5057687;27;95546;-71
2022/01/03 14:44:04;;;;;;;16.05;3.60;;;;;;;;;;5060999;27;91587;-70
2022/01/03 14:46:32;;;;;;;14.07;2.85;;;;;;;;;;5057784;27;93835;-71
2022/01/03 14:49:00;;;;;;;13.93;2.70;;;;;;;;;;5058106;27;92320;-71
2022/01/03 14:51:36;;;;;;;11.50;2.25;;;;;;;;;;5056467;27;94679;-71
2022/01/03 14:54:31;;;;;;;11.50;2.72;;;;;;;;;;5058011;27;93613;-71
2022/01/03 14:57:17;;;;;;;16.77;3.22;;;;;;;;;;5055150;27;94454;-72
2022/01/03 14:59:43;;;;;;;15.75;2.33;;;;;;;;;;5057952;27;93308;-72
2022/01/03 15:02:10;;;;;;;13.55;2.45;;;;;;;;;;5057604;27;93493;-72
2022/01/03 15:04:36;;;;;;;10.55;2.58;;;;;;;;;;5057919;27;92232;-72
2022/01/03 15:07:24;;;;;;;15.00;2.88;;;;;;;;;;5060796;27;93634;-72